Latest Weather Observations for Hobart

IDT60801

Issued at 7:32 am EST Tuesday 26 July 2016 (issued every 30 minutes, with the page automatically refreshed every 10 minutes)

About weather observations | Map of weather stations | Latest weather observations for TAS | Other Formats
Station Details ID: 094029 Name: HOBART (ELLERSLIE ROAD) Lat: -42.89 Lon: 147.33 Height: 50.5 m
Data from the previous 72 hours. | See also: Recent months at Hobart
Date/Time
EST
Temp
°C
App
Temp
°C
Dew
Point
°C
Rel
Hum
%
Delta-T
°C
Wind Press
QNH
hPa
Press
MSL
hPa
Rain since
9am
mm
Dir  Spd
km/h
Gust
km/h
Spd
kts
Gust
kts
26/07:30am 4.4 -3.5 0.8 77 1.4 NW 32 44 17 24 995.3 995.4 10.6
26/07:00am 4.2 -2.6 0.9 79 1.3 NW 26 35 14 19 994.6 994.7 10.6
26/06:30am 4.0 -1.4 1.2 82 1.1 NW 19 24 10 13 994.5 994.6 10.6
26/06:00am 4.3 -1.3 1.5 82 1.1 NW 20 30 11 16 994.0 994.1 9.8
26/05:30am 4.2 -2.1 1.4 82 1.1 NW 24 43 13 23 993.2 993.3 9.6
26/05:00am 4.2 -1.2 1.4 82 1.1 NW 19 32 10 17 992.6 992.7 8.8
26/04:30am 4.3 -2.3 1.8 84 1.0 NW 26 39 14 21 992.4 992.4 7.6
26/04:03am 4.3 -2.8 1.5 82 1.1 NW 28 46 15 25 991.8 991.8 6.4
26/04:00am 4.2 -3.6 1.4 82 1.1 NW 32 46 17 25 991.7 991.7 6.4
26/03:30am 4.4 -2.3 1.4 81 1.2 NW 26 37 14 20 990.9 990.9 6.0
26/03:00am 4.3 -2.7 1.8 84 1.0 NW 28 43 15 23 990.9 990.9 4.4
26/02:30am 4.0 -3.5 1.2 82 1.1 NW 30 41 16 22 990.7 990.7 4.0
26/02:00am 3.9 -3.5 1.6 85 0.9 NW 30 41 16 22 990.5 990.5 3.6
26/01:30am 4.9 -2.6 1.1 76 1.5 NW 30 52 16 28 989.8 989.9 2.0
26/01:00am 5.1 -2.7 1.6 78 1.4 NW 32 50 17 27 989.4 989.5 1.6
26/12:30am 5.5 -2.9 1.3 74 1.7 NW 35 57 19 31 988.5 988.6 1.2
26/12:00am 5.3 -1.7 1.9 79 1.4 NW 28 46 15 25 988.5 988.6 1.0
 
Date/Time
EST
Temp
°C
App
Temp
°C
Dew
Point
°C
Rel
Hum
%
Delta-T
°C
Wind Press
QNH
hPa
Press
MSL
hPa
Rain since
9am
mm
Dir  Spd
km/h
Gust
km/h
Spd
kts
Gust
kts
25/11:43pm 5.6 -1.8 1.7 76 1.6 NW 30 48 16 26 988.7 988.8 0.6
25/11:30pm 5.8 -1.3 1.3 73 1.8 NNW 28 44 15 24 988.5 988.6 0.6
25/11:00pm 6.9 -0.8 0.1 62 2.7 NW 30 46 16 25 988.0 988.1 0.4
25/10:41pm 7.1 -0.5 0.6 63 2.6 NW 30 50 16 27 987.5 987.6 0.4
25/10:30pm 7.5 0.7 0.6 61 2.7 NNW 26 41 14 22 987.3 987.4 0.4
25/10:00pm 7.5 0.1 2.0 68 2.3 NW 30 48 16 26 986.8 986.9 0.4
25/09:30pm 8.2 -0.4 2.8 69 2.3 NW 37 59 20 32 986.7 986.8 0.4
25/09:02pm 8.9 0.4 3.2 67 2.4 NNW 37 56 20 30 985.5 985.6 0.4
25/09:00pm 8.8 0.3 3.3 68 2.4 NNW 37 54 20 29 985.4 985.5 0.4
25/08:31pm 9.4 1.8 2.7 63 2.9 NNW 32 50 17 27 985.7 985.8 0.4
25/08:30pm 9.3 1.7 2.9 64 2.7 NNW 32 46 17 25 985.7 985.8 0.4
25/08:26pm 9.2 2.4 3.3 66 2.5 NNW 28 46 15 25 985.8 985.9 0.4
25/08:00pm 9.3 3.6 2.8 64 2.8 NNW 22 32 12 17 986.6 986.7 0.0
25/07:30pm 9.6 3.3 1.8 58 3.3 NNW 24 35 13 19 987.1 987.2 0.0
25/07:00pm 8.8 3.5 3.0 67 2.5 N 20 33 11 18 988.2 988.3 0.0
25/06:30pm 8.2 4.2 3.1 70 2.2 NNW 13 20 7 11 988.9 989.0 0.0
25/06:00pm 8.6 5.4 2.8 67 2.5 N 9 17 5 9 989.6 989.7 0.0
25/05:30pm 8.7 5.0 2.6 65 2.6 N 11 17 6 9 990.9 990.9 0.0
25/05:00pm 9.7 5.6 2.2 59 3.2 N 13 19 7 10 991.6 991.6 0.0
25/04:30pm 10.5 4.6 1.8 55 3.7 NW 22 32 12 17 991.8 991.8 0.0
25/04:00pm 11.2 5.0 1.9 52 4.0 NNW 24 37 13 20 992.5 992.6 0.0
25/03:30pm 11.6 6.2 2.2 52 4.0 NNW 20 32 11 17 993.3 993.4 0.0
25/03:00pm 11.4 7.1 3.0 56 3.7 NNW 15 22 8 12 994.1 994.2 0.0
25/02:30pm 11.7 6.4 2.9 55 3.9 NW 20 30 11 16 994.4 994.5 0.0
25/02:00pm 11.3 5.2 2.6 55 3.8 NW 24 33 13 18 994.8 994.9 0.0
25/01:30pm 11.2 4.3 2.5 55 3.8 NNW 28 39 15 21 995.3 995.4 0.0
25/01:00pm 11.1 4.5 2.3 54 3.8 NNW 26 35 14 19 995.7 995.8 0.0
25/12:30pm 10.6 3.3 2.2 56 3.6 NNW 30 43 16 23 996.1 996.2 0.0
25/12:00pm 10.4 3.1 2.5 58 3.4 NNW 30 43 16 23 996.7 996.8 0.0
25/11:30am 10.1 3.2 2.4 59 3.3 NNW 28 37 15 20 997.3 997.4 0.0
25/11:00am 9.3 2.7 2.0 60 3.1 NNW 26 35 14 19 997.5 997.6 0.0
25/10:30am 7.5 0.8 1.7 66 2.4 NNW 26 35 14 19 997.7 997.8 0.0
25/10:00am 6.0 0.7 1.6 73 1.8 NNW 19 28 10 15 998.1 998.2 0.0
25/09:30am 5.3 0.6 1.0 74 1.7 NNW 15 22 8 12 998.3 998.4 0.0
25/09:00am 3.8 -1.8 1.3 84 1.0 NNW 20 28 11 15 998.3 998.4 0.0
25/08:30am 3.5 -2.5 0.9 83 1.0 NNW 22 28 12 15 998.5 998.6 0.0
25/08:00am 3.6 -1.5 1.0 83 1.0 NW 17 22 9 12 998.6 998.7 0.0
25/07:30am 3.2 -2.4 1.1 86 0.8 NW 20 26 11 14 998.6 998.7 0.0
25/07:00am 3.1 -2.5 1.0 86 0.8 NNW 20 28 11 15 998.4 998.5 0.0
25/06:30am 2.9 -2.7 1.1 88 0.7 NNW 20 30 11 16 998.6 998.7 0.0
25/06:00am 3.2 -2.2 1.1 86 0.8 NNW 19 28 10 15 998.6 998.7 0.0
25/05:30am 3.0 -2.6 1.2 88 0.7 NNW 20 28 11 15 998.6 998.7 0.0
25/05:00am 3.0 -2.6 1.5 90 0.6 NNW 20 28 11 15 998.8 998.9 0.0
25/04:30am 3.1 -1.9 1.6 90 0.6 N 17 22 9 12 998.9 999.0 0.0
25/04:00am 3.5 -1.5 1.5 87 0.8 NNW 17 28 9 15 998.9 999.0 0.0
25/03:30am 3.5 -1.1 1.5 87 0.8 N 15 22 8 12 999.0 999.1 0.0
25/03:00am 3.5 -1.5 1.5 87 0.8 N 17 26 9 14 999.2 999.3 0.0
25/02:30am 3.9 -1.7 1.4 84 1.0 NNW 20 30 11 16 999.6 999.7 0.0
25/02:00am 3.8 0.3 1.5 85 0.9 N 9 13 5 7 999.5 999.6 0.0
25/01:30am 4.6 1.1 1.0 77 1.4 NNW 9 15 5 8 999.8 999.9 0.0
25/01:00am 4.8 -0.3 1.0 76 1.5 NW 17 22 9 12 999.9 1000.0 0.0
25/12:30am 3.3 0.2 1.2 86 0.8 W 7 13 4 7 1000.1 1000.2 0.0
25/12:00am 3.5 -0.7 1.5 87 0.8 NNW 13 20 7 11 1000.3 1000.4 0.0
 
Date/Time
EST
Temp
°C
App
Temp
°C
Dew
Point
°C
Rel
Hum
%
Delta-T
°C
Wind Press
QNH
hPa
Press
MSL
hPa
Rain since
9am
mm
Dir  Spd
km/h
Gust
km/h
Spd
kts
Gust
kts
24/11:30pm 4.3 -2.1 1.0 79 1.3 NNW 24 35 13 19 1000.5 1000.6 0.0
24/11:00pm 3.1 -0.5 0.8 85 0.9 NW 9 13 5 7 1000.7 1000.8 0.0
24/10:30pm 3.3 0.0 0.4 81 1.1 WSW 7 9 4 5 1001.0 1001.1 0.0
24/10:00pm 3.2 1.0 0.9 85 0.9 NNW 2 6 1 3 1001.3 1001.4 0.0
24/09:30pm 3.4 0.2 0.8 83 1.0 NW 7 11 4 6 1001.5 1001.6 0.0
24/09:00pm 4.0 0.1 0.9 80 1.2 NNW 11 17 6 9 1001.7 1001.8 0.0
24/08:30pm 3.7 1.9 1.1 83 1.0 CALM 0 7 0 4 1001.8 1001.9 0.0
24/08:00pm 3.8 0.7 1.2 83 1.0 WNW 7 9 4 5 1002.1 1002.2 0.0
24/07:30pm 4.4 1.0 1.6 82 1.1 NW 9 11 5 6 1002.1 1002.2 0.0
24/07:00pm 4.4 1.3 1.4 81 1.2 NW 7 11 4 6 1002.2 1002.3 0.0
24/06:30pm 5.6 3.2 1.9 77 1.5 N 4 7 2 4 1002.3 1002.4 0.0
24/06:00pm 5.8 3.4 1.9 76 1.6 ENE 4 9 2 5 1002.2 1002.3 0.0
24/05:30pm 6.7 4.9 1.5 69 2.1 CALM 0 6 0 3 1002.2 1002.3 0.0
24/05:00pm 7.1 4.0 1.5 67 2.3 NW 7 11 4 6 1002.2 1002.3 0.0
24/04:30pm 8.2 3.9 0.8 59 3.0 N 13 19 7 10 1002.1 1002.2 0.0
24/04:00pm 8.7 4.0 0.6 57 3.3 NNW 15 22 8 12 1002.4 1002.5 0.0
24/03:30pm 9.1 4.0 0.5 55 3.5 NW 17 26 9 14 1002.5 1002.6 0.0
24/03:00pm 8.8 3.7 0.7 57 3.3 NW 17 26 9 14 1002.6 1002.7 0.0
24/02:30pm 9.5 4.0 0.4 53 3.7 NNW 19 24 10 13 1002.5 1002.6 0.0
24/02:00pm 9.2 3.6 -0.3 51 3.8 NNW 19 28 10 15 1002.6 1002.7 0.0
24/01:30pm 9.0 3.3 0.3 54 3.5 N 20 28 11 15 1002.9 1003.0 0.0
24/01:00pm 8.6 2.1 0.4 56 3.3 NNW 24 35 13 19 1003.3 1003.4 0.0
24/12:30pm 8.6 2.1 0.1 55 3.4 NNW 24 41 13 22 1003.8 1003.9 0.0
24/12:00pm 8.2 2.7 0.5 58 3.1 N 19 30 10 16 1004.1 1004.2 0.0
24/11:30am 6.8 0.0 0.5 64 2.5 NNW 26 37 14 20 1004.4 1004.5 0.0
24/11:00am 7.1 1.4 0.3 62 2.7 NNW 20 28 11 15 1004.5 1004.6 0.0
24/10:30am 6.4 0.6 0.0 63 2.5 NNW 20 30 11 16 1004.7 1004.8 0.0
24/10:00am 6.1 0.9 -0.1 64 2.4 N 17 24 9 13 1004.7 1004.8 0.0
24/09:30am 5.2 -1.3 0.0 69 2.0 N 24 37 13 20 1004.7 1004.8 0.0
24/09:00am 4.7 1.1 0.3 73 1.7 N 9 19 5 10 1005.0 1005.1 6.0
24/08:30am 4.2 0.2 0.6 77 1.4 ENE 11 15 6 8 1005.0 1005.1 6.0
24/08:00am 3.0 -0.7 -0.2 79 1.2 SW 9 15 5 8 1004.8 1004.9 6.0
24/07:30am 3.6 -0.9 -0.4 75 1.5 NW 13 20 7 11 1004.6 1004.7 6.0
24/07:00am 3.9 -2.7 -0.7 72 1.7 NW 24 37 13 20 1004.3 1004.4 6.0
24/06:30am 3.6 -2.2 -0.4 75 1.5 NW 20 32 11 17 1003.9 1004.0 6.0
24/06:00am 3.7 -2.9 -0.6 73 1.6 NW 24 35 13 19 1003.9 1004.0 6.0
24/05:30am 3.3 -3.4 -0.8 74 1.5 NW 24 35 13 19 1003.8 1003.9 6.0
24/05:00am 3.3 -3.4 -1.1 73 1.6 NNW 24 32 13 17 1003.7 1003.8 6.0
24/04:30am 3.2 -3.9 -0.9 74 1.5 NW 26 37 14 20 1004.0 1004.1 6.0
24/04:00am 3.6 -3.5 -1.0 72 1.7 NW 26 39 14 21 1003.6 1003.7 6.0
24/03:30am 3.2 -2.6 -1.2 73 1.6 NW 19 28 10 15 1003.5 1003.6 6.0
24/03:00am 3.4 -2.6 -1.9 68 1.9 NNW 20 28 11 15 1003.7 1003.8 6.0
24/02:30am 3.4 -3.4 -1.9 68 1.9 NW 24 35 13 19 1003.7 1003.8 6.0
24/02:00am 3.3 -3.1 -2.0 68 1.9 NNW 22 32 12 17 1003.7 1003.8 6.0
24/01:30am 3.2 -2.8 -1.8 70 1.8 NNW 20 33 11 18 1003.5 1003.6 6.0
24/01:00am 3.0 -2.5 -2.1 69 1.8 NNW 17 26 9 14 1003.4 1003.5 6.0
24/12:30am 3.1 -2.0 -1.9 70 1.8 NW 15 26 8 14 1003.5 1003.6 6.0
24/12:00am 3.4 -4.2 -2.2 67 2.0 NW 28 41 15 22 1003.2 1003.3 6.0
 
Date/Time
EST
Temp
°C
App
Temp
°C
Dew
Point
°C
Rel
Hum
%
Delta-T
°C
Wind Press
QNH
hPa
Press
MSL
hPa
Rain since
9am
mm
Dir  Spd
km/h
Gust
km/h
Spd
kts
Gust
kts
23/11:30pm 2.8 -3.6 -1.4 74 1.5 NW 22 33 12 18 1002.8 1002.9 6.0
23/11:00pm 3.4 -1.4 -2.6 65 2.1 WNW 13 26 7 14 1003.0 1003.1 6.0
23/10:30pm 3.0 -2.4 -1.7 71 1.7 NNW 17 28 9 15 1002.8 1002.9 6.0
23/10:00pm 2.2 -1.6 -0.8 80 1.1 NNE 9 17 5 9 1002.7 1002.8 6.0
23/09:30pm 2.1 -1.3 -0.9 80 1.1 N 7 13 4 7 1002.0 1002.1 6.0
23/09:00pm 2.4 -2.4 0.0 84 0.9 W 15 28 8 15 1001.9 1002.0 6.0
23/08:30pm 2.8 -3.4 -0.4 79 1.2 SW 22 35 12 19 1001.0 1001.1 5.6
23/08:00pm 2.8 -5.9 -0.4 79 1.2 SW 35 61 19 33 1001.0 1001.1 5.2
23/07:48pm 4.3 -3.5 -4.2 54 2.9 WSW 28 50 15 27 1000.3 1000.4 4.8
23/07:30pm 3.6 -2.3 -2.0 67 2.0 W 19 30 10 16 999.7 999.8 4.8
23/07:13pm 4.0 -3.2 -2.1 64 2.2 WSW 26 56 14 30 999.6 999.7 4.8
23/07:08pm 3.9 -2.2 -2.6 62 2.3 WSW 20 44 11 24 999.5 999.6 4.8
23/07:00pm 3.2 -2.2 -1.5 71 1.7 WNW 17 24 9 13 999.1 999.2 4.8
23/06:37pm 3.5 -2.8 -1.1 72 1.7 SW 22 57 12 31 998.9 999.0 4.6
23/06:30pm 3.8 -0.9 -1.7 67 2.0 SW 13 28 7 15 998.7 998.8 4.4
23/06:00pm 3.5 -3.2 -1.4 70 1.8 SW 24 39 13 21 997.9 998.0 4.4
23/05:30pm 3.5 -1.6 -2.1 67 2.0 WSW 15 30 8 16 996.7 996.8 4.4
23/05:00pm 3.6 -3.8 -0.7 73 1.6 SW 28 46 15 25 996.8 996.9 4.0
23/04:30pm 3.3 -2.6 -0.7 75 1.5 SW 20 32 11 17 995.5 995.6 3.8
23/04:14pm 3.2 -3.7 0.0 79 1.2 WSW 26 43 14 23 995.4 995.5 3.6
23/04:00pm 3.7 -1.5 0.0 77 1.4 W 17 28 9 15 994.7 994.8 3.4
23/03:30pm 2.7 -1.2 0.9 88 0.7 WNW 11 17 6 9 994.0 994.1 3.2
23/03:00pm 4.8 -2.7 -1.1 65 2.2 SW 28 46 15 25 993.2 993.3 2.0
23/02:30pm 6.2 -0.8 -3.9 48 3.5 WSW 24 46 13 25 991.5 991.5 2.0
23/02:29pm 6.1 -0.6 -4.1 48 3.6 WSW 22 46 12 25 991.3 991.3 2.0
23/02:27pm 6.0 -0.1 -3.9 49 3.5 WSW 19 43 10 23 991.4 991.4 2.0
23/02:00pm 3.7 -0.6 0.9 82 1.1 NW 13 20 7 11 991.2 991.2 2.0
23/01:30pm 5.4 -1.4 -1.6 60 2.6 SW 24 35 13 19 990.8 990.8 1.4
23/01:00pm 7.5 1.4 -2.7 48 3.8 W 20 35 11 19 989.7 989.8 1.4
23/12:30pm 4.4 1.2 0.6 76 1.5 WSW 7 22 4 12 989.7 989.8 1.4
23/12:00pm 3.1 -3.1 -0.4 78 1.3 W 22 37 12 20 989.6 989.7 1.4
23/11:45am 3.2 -4.4 0.6 83 1.0 NW 30 54 16 29 989.7 989.8 0.8
23/11:44am 3.3 -3.9 0.7 83 1.0 NW 28 41 15 22 989.5 989.6 0.8
23/11:30am 2.7 -2.1 0.1 83 1.0 W 15 24 8 13 989.4 989.5 0.6
23/11:00am 4.1 -2.1 -0.4 72 1.7 SW 22 46 12 25 989.1 989.2 0.2
23/10:30am 5.7 -2.9 -3.9 50 3.3 WSW 32 50 17 27 988.2 988.3 0.0
23/10:00am 3.8 -4.0 -1.0 71 1.8 W 30 54 16 29 987.8 987.9 0.0
23/09:33am 5.6 -2.4 -6.0 43 3.8 WSW 28 52 15 28 986.9 987.0 0.0
23/09:30am 5.6 -1.7 -6.5 41 3.9 W 24 52 13 28 986.9 987.0 0.0
23/09:09am 4.8 -1.2 -1.4 64 2.3 WNW 20 46 11 25 986.7 986.8 0.0
23/09:00am 4.7 -2.4 -0.9 67 2.1 WSW 26 44 14 24 987.1 987.2 7.6
23/08:30am 6.0 -2.9 -7.1 38 4.2 W 32 65 17 35 985.9 986.0 7.6
23/08:19am 5.3 -1.5 -4.9 48 3.4 WSW 22 54 12 29 986.0 986.1 7.4
23/08:00am 3.9 -0.4 1.1 82 1.1 NE 13 22 7 12 985.8 985.9 7.4

Other Formats:

Comma delimited format used in spreadsheet applications
http://www.bom.gov.au/fwo/IDT60801/IDT60801.94970.axf

JavaScript Object Notation format (JSON) in row-major order
http://www.bom.gov.au/fwo/IDT60801/IDT60801.94970.json